sensor_id;sensor_type;location;lat;lon;timestamp;P1;durP1;ratioP1;P2;durP2;ratioP2
7783;SDS011;19359;51.402;6.778;2023-02-21T00:02:19;31.02;;;16.23;;
7783;SDS011;19359;51.402;6.778;2023-02-21T00:05:03;27.25;;;15.07;;
7783;SDS011;19359;51.402;6.778;2023-02-21T00:07:47;30.48;;;17.15;;
7783;SDS011;19359;51.402;6.778;2023-02-21T00:10:32;25.77;;;15.88;;
7783;SDS011;19359;51.402;6.778;2023-02-21T00:13:17;32.70;;;15.63;;
7783;SDS011;19359;51.402;6.778;2023-02-21T00:16:02;24.67;;;14.07;;
7783;SDS011;19359;51.402;6.778;2023-02-21T00:18:46;29.23;;;16.58;;
7783;SDS011;19359;51.402;6.778;2023-02-21T00:21:31;34.17;;;17.30;;
7783;SDS011;19359;51.402;6.778;2023-02-21T00:24:16;33.70;;;16.80;;
7783;SDS011;19359;51.402;6.778;2023-02-21T00:27:02;30.17;;;16.30;;
7783;SDS011;19359;51.402;6.778;2023-02-21T00:29:48;28.65;;;15.85;;
7783;SDS011;19359;51.402;6.778;2023-02-21T00:32:33;29.67;;;15.13;;
7783;SDS011;19359;51.402;6.778;2023-02-21T00:35:18;28.95;;;17.17;;
7783;SDS011;19359;51.402;6.778;2023-02-21T00:38:02;32.53;;;17.55;;
7783;SDS011;19359;51.402;6.778;2023-02-21T00:40:47;32.63;;;17.95;;
7783;SDS011;19359;51.402;6.778;2023-02-21T00:43:32;28.90;;;17.42;;
7783;SDS011;19359;51.402;6.778;2023-02-21T00:46:19;40.13;;;18.15;;
7783;SDS011;19359;51.402;6.778;2023-02-21T00:49:04;32.25;;;15.95;;
7783;SDS011;19359;51.402;6.778;2023-02-21T00:51:49;36.47;;;17.90;;
7783;SDS011;19359;51.402;6.778;2023-02-21T00:54:33;33.20;;;17.45;;
7783;SDS011;19359;51.402;6.778;2023-02-21T00:57:17;27.30;;;14.27;;
7783;SDS011;19359;51.402;6.778;2023-02-21T01:00:03;30.35;;;17.80;;
7783;SDS011;19359;51.402;6.778;2023-02-21T01:02:50;33.17;;;19.30;;
7783;SDS011;19359;51.402;6.778;2023-02-21T01:05:34;33.72;;;18.38;;
7783;SDS011;19359;51.402;6.778;2023-02-21T01:08:19;38.22;;;18.90;;
7783;SDS011;19359;51.402;6.778;2023-02-21T01:11:03;33.30;;;18.25;;
7783;SDS011;19359;51.402;6.778;2023-02-21T01:13:47;32.28;;;18.02;;
7783;SDS011;19359;51.402;6.778;2023-02-21T01:16:32;29.05;;;17.02;;
7783;SDS011;19359;51.402;6.778;2023-02-21T01:19:18;30.35;;;17.67;;
7783;SDS011;19359;51.402;6.778;2023-02-21T01:22:02;32.95;;;19.33;;
7783;SDS011;19359;51.402;6.778;2023-02-21T01:24:48;36.67;;;18.85;;
7783;SDS011;19359;51.402;6.778;2023-02-21T01:27:32;37.13;;;17.80;;
7783;SDS011;19359;51.402;6.778;2023-02-21T01:30:16;36.53;;;17.55;;
7783;SDS011;19359;51.402;6.778;2023-02-21T01:33:00;40.08;;;20.15;;
7783;SDS011;19359;51.402;6.778;2023-02-21T01:35:46;36.45;;;18.55;;
7783;SDS011;19359;51.402;6.778;2023-02-21T01:38:31;31.73;;;19.77;;
7783;SDS011;19359;51.402;6.778;2023-02-21T01:41:16;39.20;;;17.45;;
7783;SDS011;19359;51.402;6.778;2023-02-21T01:44:02;31.92;;;16.85;;
7783;SDS011;19359;51.402;6.778;2023-02-21T01:46:48;33.65;;;18.17;;
7783;SDS011;19359;51.402;6.778;2023-02-21T01:49:34;33.90;;;18.70;;
7783;SDS011;19359;51.402;6.778;2023-02-21T01:52:23;42.83;;;22.00;;
7783;SDS011;19359;51.402;6.778;2023-02-21T01:55:08;41.58;;;18.35;;
7783;SDS011;19359;51.402;6.778;2023-02-21T01:57:54;30.17;;;14.30;;
7783;SDS011;19359;51.402;6.778;2023-02-21T02:00:39;32.85;;;18.10;;
7783;SDS011;19359;51.402;6.778;2023-02-21T02:03:24;36.40;;;18.17;;
7783;SDS011;19359;51.402;6.778;2023-02-21T02:06:09;33.05;;;17.85;;
7783;SDS011;19359;51.402;6.778;2023-02-21T02:08:58;38.58;;;19.77;;
7783;SDS011;19359;51.402;6.778;2023-02-21T02:12:11;35.35;;;20.48;;
7783;SDS011;19359;51.402;6.778;2023-02-21T02:15:04;37.20;;;19.02;;
7783;SDS011;19359;51.402;6.778;2023-02-21T02:17:42;34.20;;;18.77;;
7783;SDS011;19359;51.402;6.778;2023-02-21T02:20:30;32.85;;;19.92;;
7783;SDS011;19359;51.402;6.778;2023-02-21T02:23:33;31.45;;;17.88;;
7783;SDS011;19359;51.402;6.778;2023-02-21T02:26:39;32.65;;;18.58;;
7783;SDS011;19359;51.402;6.778;2023-02-21T02:29:38;35.50;;;20.73;;
7783;SDS011;19359;51.402;6.778;2023-02-21T02:32:19;33.80;;;18.63;;
7783;SDS011;19359;51.402;6.778;2023-02-21T02:35:00;40.88;;;19.35;;
7783;SDS011;19359;51.402;6.778;2023-02-21T02:37:34;35.15;;;17.73;;
7783;SDS011;19359;51.402;6.778;2023-02-21T02:40:08;37.25;;;19.42;;
7783;SDS011;19359;51.402;6.778;2023-02-21T02:42:45;39.17;;;20.45;;
7783;SDS011;19359;51.402;6.778;2023-02-21T02:45:21;34.75;;;18.00;;
7783;SDS011;19359;51.402;6.778;2023-02-21T02:47:52;34.03;;;18.02;;
7783;SDS011;19359;51.402;6.778;2023-02-21T02:50:25;32.95;;;16.42;;
7783;SDS011;19359;51.402;6.778;2023-02-21T02:52:53;33.40;;;19.45;;
7783;SDS011;19359;51.402;6.778;2023-02-21T02:55:27;34.72;;;18.83;;
7783;SDS011;19359;51.402;6.778;2023-02-21T02:57:59;27.10;;;15.48;;
7783;SDS011;19359;51.402;6.778;2023-02-21T03:00:26;39.30;;;21.17;;
7783;SDS011;19359;51.402;6.778;2023-02-21T03:03:04;32.20;;;19.50;;
7783;SDS011;19359;51.402;6.778;2023-02-21T03:05:57;34.08;;;18.30;;
7783;SDS011;19359;51.402;6.778;2023-02-21T03:08:37;43.13;;;21.98;;
7783;SDS011;19359;51.402;6.778;2023-02-21T03:11:10;39.33;;;20.35;;
7783;SDS011;19359;51.402;6.778;2023-02-21T03:13:43;34.72;;;19.77;;
7783;SDS011;19359;51.402;6.778;2023-02-21T03:16:15;38.83;;;19.80;;
7783;SDS011;19359;51.402;6.778;2023-02-21T03:18:45;36.53;;;20.75;;
7783;SDS011;19359;51.402;6.778;2023-02-21T03:21:16;42.47;;;20.55;;
7783;SDS011;19359;51.402;6.778;2023-02-21T03:23:49;41.70;;;21.20;;
7783;SDS011;19359;51.402;6.778;2023-02-21T03:26:18;40.70;;;20.38;;
7783;SDS011;19359;51.402;6.778;2023-02-21T03:28:45;41.08;;;21.02;;
7783;SDS011;19359;51.402;6.778;2023-02-21T03:31:14;39.50;;;20.15;;
7783;SDS011;19359;51.402;6.778;2023-02-21T03:33:45;36.10;;;19.58;;
7783;SDS011;19359;51.402;6.778;2023-02-21T03:36:12;41.05;;;19.08;;
7783;SDS011;19359;51.402;6.778;2023-02-21T03:38:42;35.63;;;20.95;;
7783;SDS011;19359;51.402;6.778;2023-02-21T03:41:08;50.33;;;23.83;;
7783;SDS011;19359;51.402;6.778;2023-02-21T03:43:37;25.95;;;13.93;;
7783;SDS011;19359;51.402;6.778;2023-02-21T03:46:04;40.47;;;21.65;;
7783;SDS011;19359;51.402;6.778;2023-02-21T03:48:31;46.10;;;21.73;;
7783;SDS011;19359;51.402;6.778;2023-02-21T03:50:59;41.70;;;21.83;;
7783;SDS011;19359;51.402;6.778;2023-02-21T03:53:25;39.95;;;19.85;;
7783;SDS011;19359;51.402;6.778;2023-02-21T03:55:53;39.58;;;21.23;;
7783;SDS011;19359;51.402;6.778;2023-02-21T03:58:20;34.58;;;16.50;;
7783;SDS011;19359;51.402;6.778;2023-02-21T04:00:47;43.42;;;21.58;;
7783;SDS011;19359;51.402;6.778;2023-02-21T04:03:15;40.40;;;21.83;;
7783;SDS011;19359;51.402;6.778;2023-02-21T04:05:42;39.97;;;21.35;;
7783;SDS011;19359;51.402;6.778;2023-02-21T04:08:09;42.10;;;21.30;;
7783;SDS011;19359;51.402;6.778;2023-02-21T04:10:36;47.42;;;22.38;;
7783;SDS011;19359;51.402;6.778;2023-02-21T04:13:05;40.83;;;20.55;;
7783;SDS011;19359;51.402;6.778;2023-02-21T04:15:33;54.35;;;23.05;;
7783;SDS011;19359;51.402;6.778;2023-02-21T04:18:00;55.28;;;23.08;;
7783;SDS011;19359;51.402;6.778;2023-02-21T04:20:27;56.03;;;24.20;;
7783;SDS011;19359;51.402;6.778;2023-02-21T04:22:54;57.95;;;25.48;;
7783;SDS011;19359;51.402;6.778;2023-02-21T04:25:21;46.35;;;21.73;;
7783;SDS011;19359;51.402;6.778;2023-02-21T04:27:48;49.63;;;22.85;;
7783;SDS011;19359;51.402;6.778;2023-02-21T04:30:17;48.22;;;22.90;;
7783;SDS011;19359;51.402;6.778;2023-02-21T04:32:44;43.92;;;21.10;;
7783;SDS011;19359;51.402;6.778;2023-02-21T04:35:11;44.55;;;22.60;;
7783;SDS011;19359;51.402;6.778;2023-02-21T04:37:38;47.58;;;23.50;;
7783;SDS011;19359;51.402;6.778;2023-02-21T04:40:05;51.17;;;23.73;;
7783;SDS011;19359;51.402;6.778;2023-02-21T04:42:33;53.03;;;25.60;;
7783;SDS011;19359;51.402;6.778;2023-02-21T04:45:00;51.25;;;22.52;;
7783;SDS011;19359;51.402;6.778;2023-02-21T04:47:28;58.60;;;23.88;;
7783;SDS011;19359;51.402;6.778;2023-02-21T04:49:55;51.63;;;22.30;;
7783;SDS011;19359;51.402;6.778;2023-02-21T04:52:22;48.45;;;23.45;;
7783;SDS011;19359;51.402;6.778;2023-02-21T04:54:49;53.72;;;23.08;;
7783;SDS011;19359;51.402;6.778;2023-02-21T04:57:16;55.03;;;24.20;;
7783;SDS011;19359;51.402;6.778;2023-02-21T04:59:43;48.88;;;21.55;;
7783;SDS011;19359;51.402;6.778;2023-02-21T05:02:10;56.28;;;23.30;;
7783;SDS011;19359;51.402;6.778;2023-02-21T05:04:38;57.38;;;24.25;;
7783;SDS011;19359;51.402;6.778;2023-02-21T05:07:07;67.57;;;25.50;;
7783;SDS011;19359;51.402;6.778;2023-02-21T05:09:34;47.97;;;24.40;;
7783;SDS011;19359;51.402;6.778;2023-02-21T05:12:01;46.15;;;23.63;;
7783;SDS011;19359;51.402;6.778;2023-02-21T05:14:27;53.63;;;25.92;;
7783;SDS011;19359;51.402;6.778;2023-02-21T05:16:54;49.63;;;24.45;;
7783;SDS011;19359;51.402;6.778;2023-02-21T05:19:21;51.92;;;23.95;;
7783;SDS011;19359;51.402;6.778;2023-02-21T05:21:54;54.00;;;24.20;;
7783;SDS011;19359;51.402;6.778;2023-02-21T05:24:22;53.50;;;21.52;;
7783;SDS011;19359;51.402;6.778;2023-02-21T05:26:50;56.53;;;24.73;;
7783;SDS011;19359;51.402;6.778;2023-02-21T05:29:17;56.72;;;22.35;;
7783;SDS011;19359;51.402;6.778;2023-02-21T05:31:44;55.25;;;24.35;;
7783;SDS011;19359;51.402;6.778;2023-02-21T05:34:11;62.63;;;25.80;;
7783;SDS011;19359;51.402;6.778;2023-02-21T05:36:39;56.75;;;24.63;;
7783;SDS011;19359;51.402;6.778;2023-02-21T05:39:07;52.53;;;21.17;;
7783;SDS011;19359;51.402;6.778;2023-02-21T05:41:34;61.00;;;23.98;;
7783;SDS011;19359;51.402;6.778;2023-02-21T05:44:01;32.80;;;16.33;;
7783;SDS011;19359;51.402;6.778;2023-02-21T05:46:30;48.00;;;21.40;;
7783;SDS011;19359;51.402;6.778;2023-02-21T05:48:58;62.35;;;23.58;;
7783;SDS011;19359;51.402;6.778;2023-02-21T05:51:26;59.45;;;24.60;;
7783;SDS011;19359;51.402;6.778;2023-02-21T05:53:53;61.35;;;21.05;;
7783;SDS011;19359;51.402;6.778;2023-02-21T05:56:21;46.33;;;21.40;;
7783;SDS011;19359;51.402;6.778;2023-02-21T05:58:48;66.50;;;27.20;;
7783;SDS011;19359;51.402;6.778;2023-02-21T06:01:15;57.13;;;25.00;;
7783;SDS011;19359;51.402;6.778;2023-02-21T06:03:42;61.70;;;25.77;;
7783;SDS011;19359;51.402;6.778;2023-02-21T06:06:09;63.50;;;26.10;;
7783;SDS011;19359;51.402;6.778;2023-02-21T06:08:43;50.65;;;24.13;;
7783;SDS011;19359;51.402;6.778;2023-02-21T06:11:10;49.50;;;23.98;;
7783;SDS011;19359;51.402;6.778;2023-02-21T06:13:39;61.00;;;25.25;;
7783;SDS011;19359;51.402;6.778;2023-02-21T06:16:06;57.17;;;22.40;;
7783;SDS011;19359;51.402;6.778;2023-02-21T06:18:33;49.60;;;22.00;;
7783;SDS011;19359;51.402;6.778;2023-02-21T06:21:00;55.22;;;23.75;;
7783;SDS011;19359;51.402;6.778;2023-02-21T06:23:27;55.22;;;24.38;;
7783;SDS011;19359;51.402;6.778;2023-02-21T06:25:53;68.75;;;26.00;;
7783;SDS011;19359;51.402;6.778;2023-02-21T06:28:20;70.25;;;24.25;;
7783;SDS011;19359;51.402;6.778;2023-02-21T06:30:49;60.70;;;24.70;;
7783;SDS011;19359;51.402;6.778;2023-02-21T06:33:16;54.90;;;22.48;;
7783;SDS011;19359;51.402;6.778;2023-02-21T06:35:42;57.92;;;22.63;;
7783;SDS011;19359;51.402;6.778;2023-02-21T06:38:09;51.15;;;22.67;;
7783;SDS011;19359;51.402;6.778;2023-02-21T06:40:36;54.42;;;23.30;;
7783;SDS011;19359;51.402;6.778;2023-02-21T06:43:03;59.20;;;23.42;;
7783;SDS011;19359;51.402;6.778;2023-02-21T06:45:30;68.82;;;25.38;;
7783;SDS011;19359;51.402;6.778;2023-02-21T06:47:58;56.10;;;24.20;;
7783;SDS011;19359;51.402;6.778;2023-02-21T06:50:25;62.38;;;26.38;;
7783;SDS011;19359;51.402;6.778;2023-02-21T06:52:51;58.10;;;24.23;;
7783;SDS011;19359;51.402;6.778;2023-02-21T06:55:18;59.55;;;22.52;;
7783;SDS011;19359;51.402;6.778;2023-02-21T06:57:46;52.50;;;23.05;;
7783;SDS011;19359;51.402;6.778;2023-02-21T07:00:13;52.53;;;20.35;;
7783;SDS011;19359;51.402;6.778;2023-02-21T07:02:41;53.40;;;20.98;;
7783;SDS011;19359;51.402;6.778;2023-02-21T07:05:10;55.00;;;20.05;;
7783;SDS011;19359;51.402;6.778;2023-02-21T07:07:37;46.00;;;19.98;;
7783;SDS011;19359;51.402;6.778;2023-02-21T07:10:04;48.10;;;19.70;;
7783;SDS011;19359;51.402;6.778;2023-02-21T07:12:31;46.33;;;18.77;;
7783;SDS011;19359;51.402;6.778;2023-02-21T07:14:58;51.80;;;22.52;;
7783;SDS011;19359;51.402;6.778;2023-02-21T07:17:26;53.83;;;21.83;;
7783;SDS011;19359;51.402;6.778;2023-02-21T07:19:53;54.72;;;22.90;;
7783;SDS011;19359;51.402;6.778;2023-02-21T07:22:21;71.15;;;24.52;;
7783;SDS011;19359;51.402;6.778;2023-02-21T07:24:50;65.15;;;25.35;;
7783;SDS011;19359;51.402;6.778;2023-02-21T07:27:17;68.53;;;24.05;;
7783;SDS011;19359;51.402;6.778;2023-02-21T07:29:45;57.13;;;21.65;;
7783;SDS011;19359;51.402;6.778;2023-02-21T07:32:12;66.63;;;22.67;;
7783;SDS011;19359;51.402;6.778;2023-02-21T07:34:39;50.28;;;21.15;;
7783;SDS011;19359;51.402;6.778;2023-02-21T07:37:06;62.78;;;24.73;;
7783;SDS011;19359;51.402;6.778;2023-02-21T07:39:34;65.03;;;23.23;;
7783;SDS011;19359;51.402;6.778;2023-02-21T07:42:02;62.50;;;22.95;;
7783;SDS011;19359;51.402;6.778;2023-02-21T07:44:28;59.65;;;22.42;;
7783;SDS011;19359;51.402;6.778;2023-02-21T07:46:55;54.92;;;22.40;;
7783;SDS011;19359;51.402;6.778;2023-02-21T07:49:22;54.22;;;21.88;;
7783;SDS011;19359;51.402;6.778;2023-02-21T07:51:49;58.42;;;21.30;;
7783;SDS011;19359;51.402;6.778;2023-02-21T07:54:16;64.88;;;22.27;;
7783;SDS011;19359;51.402;6.778;2023-02-21T07:56:44;56.70;;;21.52;;
7783;SDS011;19359;51.402;6.778;2023-02-21T07:59:13;63.17;;;22.92;;
7783;SDS011;19359;51.402;6.778;2023-02-21T08:01:40;50.45;;;19.38;;
7783;SDS011;19359;51.402;6.778;2023-02-21T08:04:07;48.63;;;19.63;;
7783;SDS011;19359;51.402;6.778;2023-02-21T08:06:33;51.00;;;21.05;;
7783;SDS011;19359;51.402;6.778;2023-02-21T08:09:00;48.80;;;18.73;;
7783;SDS011;19359;51.402;6.778;2023-02-21T08:11:28;55.38;;;19.92;;
7783;SDS011;19359;51.402;6.778;2023-02-21T08:13:56;52.85;;;21.23;;
7783;SDS011;19359;51.402;6.778;2023-02-21T08:16:23;53.78;;;20.05;;
7783;SDS011;19359;51.402;6.778;2023-02-21T08:18:49;45.65;;;19.13;;
7783;SDS011;19359;51.402;6.778;2023-02-21T08:21:17;48.20;;;20.30;;
7783;SDS011;19359;51.402;6.778;2023-02-21T08:23:44;46.78;;;19.35;;
7783;SDS011;19359;51.402;6.778;2023-02-21T08:26:11;40.83;;;16.42;;
7783;SDS011;19359;51.402;6.778;2023-02-21T08:28:37;39.65;;;16.40;;
7783;SDS011;19359;51.402;6.778;2023-02-21T08:31:06;45.90;;;17.77;;
7783;SDS011;19359;51.402;6.778;2023-02-21T08:33:33;31.98;;;15.57;;
7783;SDS011;19359;51.402;6.778;2023-02-21T08:36:00;40.53;;;15.10;;
7783;SDS011;19359;51.402;6.778;2023-02-21T08:38:26;38.55;;;17.20;;
7783;SDS011;19359;51.402;6.778;2023-02-21T08:40:53;41.13;;;15.88;;
7783;SDS011;19359;51.402;6.778;2023-02-21T08:43:21;35.78;;;16.30;;
7783;SDS011;19359;51.402;6.778;2023-02-21T08:45:48;34.65;;;14.95;;
7783;SDS011;19359;51.402;6.778;2023-02-21T08:48:16;38.38;;;16.17;;
7783;SDS011;19359;51.402;6.778;2023-02-21T08:50:43;35.42;;;15.05;;
7783;SDS011;19359;51.402;6.778;2023-02-21T08:53:10;34.15;;;15.85;;
7783;SDS011;19359;51.402;6.778;2023-02-21T08:55:38;31.27;;;13.98;;
7783;SDS011;19359;51.402;6.778;2023-02-21T08:58:08;33.88;;;15.10;;
7783;SDS011;19359;51.402;6.778;2023-02-21T09:00:36;43.08;;;15.18;;
7783;SDS011;19359;51.402;6.778;2023-02-21T09:03:03;34.72;;;15.40;;
7783;SDS011;19359;51.402;6.778;2023-02-21T09:05:32;38.08;;;16.85;;
7783;SDS011;19359;51.402;6.778;2023-02-21T09:07:59;35.30;;;16.55;;
7783;SDS011;19359;51.402;6.778;2023-02-21T09:10:27;41.90;;;16.42;;
7783;SDS011;19359;51.402;6.778;2023-02-21T09:12:55;36.95;;;15.68;;
7783;SDS011;19359;51.402;6.778;2023-02-21T09:15:22;29.55;;;13.90;;
7783;SDS011;19359;51.402;6.778;2023-02-21T09:17:49;27.15;;;13.32;;
7783;SDS011;19359;51.402;6.778;2023-02-21T09:20:19;31.90;;;14.82;;
7783;SDS011;19359;51.402;6.778;2023-02-21T09:22:49;31.98;;;14.52;;
7783;SDS011;19359;51.402;6.778;2023-02-21T09:25:17;33.35;;;15.25;;
7783;SDS011;19359;51.402;6.778;2023-02-21T09:27:47;49.67;;;18.83;;
7783;SDS011;19359;51.402;6.778;2023-02-21T09:30:15;41.35;;;16.15;;
7783;SDS011;19359;51.402;6.778;2023-02-21T09:32:44;35.33;;;16.15;;
7783;SDS011;19359;51.402;6.778;2023-02-21T09:35:12;28.73;;;15.13;;
7783;SDS011;19359;51.402;6.778;2023-02-21T09:37:39;29.08;;;13.77;;
7783;SDS011;19359;51.402;6.778;2023-02-21T09:40:11;26.85;;;13.38;;
7783;SDS011;19359;51.402;6.778;2023-02-21T09:42:48;25.90;;;12.50;;
7783;SDS011;19359;51.402;6.778;2023-02-21T09:45:16;26.10;;;12.77;;
7783;SDS011;19359;51.402;6.778;2023-02-21T09:47:46;32.50;;;12.55;;
7783;SDS011;19359;51.402;6.778;2023-02-21T09:50:18;31.75;;;13.75;;
7783;SDS011;19359;51.402;6.778;2023-02-21T09:52:51;28.92;;;13.18;;
7783;SDS011;19359;51.402;6.778;2023-02-21T09:55:25;29.88;;;13.45;;
7783;SDS011;19359;51.402;6.778;2023-02-21T09:57:54;28.02;;;12.18;;
7783;SDS011;19359;51.402;6.778;2023-02-21T10:00:22;28.58;;;13.77;;
7783;SDS011;19359;51.402;6.778;2023-02-21T10:02:55;25.88;;;13.45;;
7783;SDS011;19359;51.402;6.778;2023-02-21T10:05:32;29.55;;;13.52;;
7783;SDS011;19359;51.402;6.778;2023-02-21T10:08:08;24.00;;;12.25;;
7783;SDS011;19359;51.402;6.778;2023-02-21T10:10:43;28.13;;;13.68;;
7783;SDS011;19359;51.402;6.778;2023-02-21T10:13:17;26.92;;;13.15;;
7783;SDS011;19359;51.402;6.778;2023-02-21T10:15:52;26.85;;;13.50;;
7783;SDS011;19359;51.402;6.778;2023-02-21T10:18:27;29.67;;;13.88;;
7783;SDS011;19359;51.402;6.778;2023-02-21T10:21:00;31.90;;;14.18;;
7783;SDS011;19359;51.402;6.778;2023-02-21T10:23:31;30.23;;;12.88;;
7783;SDS011;19359;51.402;6.778;2023-02-21T10:26:04;26.23;;;12.52;;
7783;SDS011;19359;51.402;6.778;2023-02-21T10:28:34;27.50;;;12.63;;
7783;SDS011;19359;51.402;6.778;2023-02-21T10:31:02;27.55;;;12.18;;
7783;SDS011;19359;51.402;6.778;2023-02-21T10:33:32;22.70;;;11.65;;
7783;SDS011;19359;51.402;6.778;2023-02-21T10:36:05;25.40;;;12.40;;
7783;SDS011;19359;51.402;6.778;2023-02-21T10:38:36;27.23;;;13.38;;
7783;SDS011;19359;51.402;6.778;2023-02-21T10:41:08;26.02;;;12.77;;
7783;SDS011;19359;51.402;6.778;2023-02-21T10:43:37;21.70;;;10.32;;
7783;SDS011;19359;51.402;6.778;2023-02-21T10:46:10;23.83;;;11.68;;
7783;SDS011;19359;51.402;6.778;2023-02-21T10:48:43;29.65;;;12.13;;
7783;SDS011;19359;51.402;6.778;2023-02-21T10:51:12;19.67;;;10.25;;
7783;SDS011;19359;51.402;6.778;2023-02-21T10:53:40;31.10;;;13.65;;
7783;SDS011;19359;51.402;6.778;2023-02-21T10:56:17;21.88;;;12.35;;
7783;SDS011;19359;51.402;6.778;2023-02-21T10:58:48;24.20;;;12.57;;
7783;SDS011;19359;51.402;6.778;2023-02-21T11:01:17;19.15;;;10.75;;
7783;SDS011;19359;51.402;6.778;2023-02-21T11:03:47;24.23;;;11.93;;
7783;SDS011;19359;51.402;6.778;2023-02-21T11:06:20;26.67;;;12.60;;
7783;SDS011;19359;51.402;6.778;2023-02-21T11:08:50;24.98;;;11.45;;
7783;SDS011;19359;51.402;6.778;2023-02-21T11:11:26;24.10;;;12.68;;
7783;SDS011;19359;51.402;6.778;2023-02-21T11:14:18;20.83;;;10.85;;
7783;SDS011;19359;51.402;6.778;2023-02-21T11:17:06;20.58;;;11.60;;
7783;SDS011;19359;51.402;6.778;2023-02-21T11:19:41;21.25;;;11.45;;
7783;SDS011;19359;51.402;6.778;2023-02-21T11:22:09;19.60;;;11.88;;
7783;SDS011;19359;51.402;6.778;2023-02-21T11:24:43;24.88;;;12.40;;
7783;SDS011;19359;51.402;6.778;2023-02-21T11:27:27;19.50;;;10.23;;
7783;SDS011;19359;51.402;6.778;2023-02-21T11:29:56;17.60;;;9.73;;
7783;SDS011;19359;51.402;6.778;2023-02-21T11:32:28;17.20;;;10.55;;
7783;SDS011;19359;51.402;6.778;2023-02-21T11:35:01;16.98;;;9.95;;
7783;SDS011;19359;51.402;6.778;2023-02-21T11:37:31;18.50;;;9.93;;
7783;SDS011;19359;51.402;6.778;2023-02-21T11:39:59;19.13;;;9.98;;
7783;SDS011;19359;51.402;6.778;2023-02-21T11:42:32;18.38;;;9.13;;
7783;SDS011;19359;51.402;6.778;2023-02-21T11:45:05;17.58;;;10.45;;
7783;SDS011;19359;51.402;6.778;2023-02-21T11:47:43;17.92;;;9.75;;
7783;SDS011;19359;51.402;6.778;2023-02-21T11:50:17;16.70;;;9.07;;
7783;SDS011;19359;51.402;6.778;2023-02-21T11:52:51;15.15;;;8.90;;
7783;SDS011;19359;51.402;6.778;2023-02-21T11:55:24;13.30;;;7.88;;
7783;SDS011;19359;51.402;6.778;2023-02-21T11:57:57;19.20;;;9.95;;
7783;SDS011;19359;51.402;6.778;2023-02-21T12:00:35;16.27;;;9.45;;
7783;SDS011;19359;51.402;6.778;2023-02-21T12:03:22;16.15;;;9.18;;
7783;SDS011;19359;51.402;6.778;2023-02-21T12:06:02;22.73;;;11.02;;
7783;SDS011;19359;51.402;6.778;2023-02-21T12:08:36;16.80;;;9.77;;
7783;SDS011;19359;51.402;6.778;2023-02-21T12:11:18;12.82;;;8.18;;
7783;SDS011;19359;51.402;6.778;2023-02-21T12:14:01;20.48;;;10.25;;
7783;SDS011;19359;51.402;6.778;2023-02-21T12:16:38;22.08;;;10.77;;
7783;SDS011;19359;51.402;6.778;2023-02-21T12:19:20;23.20;;;13.30;;
7783;SDS011;19359;51.402;6.778;2023-02-21T12:22:03;16.38;;;10.23;;
7783;SDS011;19359;51.402;6.778;2023-02-21T12:24:38;18.25;;;9.63;;
7783;SDS011;19359;51.402;6.778;2023-02-21T12:27:21;15.93;;;9.63;;
7783;SDS011;19359;51.402;6.778;2023-02-21T12:30:02;16.35;;;9.30;;
7783;SDS011;19359;51.402;6.778;2023-02-21T12:32:45;15.07;;;9.02;;
7783;SDS011;19359;51.402;6.778;2023-02-21T12:35:31;17.83;;;10.95;;
7783;SDS011;19359;51.402;6.778;2023-02-21T12:38:13;18.35;;;9.57;;
7783;SDS011;19359;51.402;6.778;2023-02-21T12:40:50;19.70;;;10.73;;
7783;SDS011;19359;51.402;6.778;2023-02-21T12:43:29;11.57;;;7.88;;
7783;SDS011;19359;51.402;6.778;2023-02-21T12:46:15;18.70;;;10.00;;
7783;SDS011;19359;51.402;6.778;2023-02-21T12:48:48;14.90;;;7.90;;
7783;SDS011;19359;51.402;6.778;2023-02-21T12:51:19;16.23;;;9.20;;
7783;SDS011;19359;51.402;6.778;2023-02-21T12:53:52;11.77;;;8.07;;
7783;SDS011;19359;51.402;6.778;2023-02-21T12:56:23;23.73;;;12.07;;
7783;SDS011;19359;51.402;6.778;2023-02-21T12:58:55;23.17;;;12.68;;
7783;SDS011;19359;51.402;6.778;2023-02-21T13:01:29;28.25;;;15.20;;
7783;SDS011;19359;51.402;6.778;2023-02-21T13:04:02;32.83;;;16.20;;
7783;SDS011;19359;51.402;6.778;2023-02-21T13:06:37;31.02;;;17.90;;
7783;SDS011;19359;51.402;6.778;2023-02-21T13:09:14;30.13;;;16.98;;
7783;SDS011;19359;51.402;6.778;2023-02-21T13:11:49;36.28;;;16.67;;
7783;SDS011;19359;51.402;6.778;2023-02-21T13:14:22;30.25;;;12.98;;
7783;SDS011;19359;51.402;6.778;2023-02-21T13:16:53;24.90;;;15.48;;
7783;SDS011;19359;51.402;6.778;2023-02-21T13:19:20;23.80;;;14.18;;
7783;SDS011;19359;51.402;6.778;2023-02-21T13:21:54;22.35;;;12.98;;
7783;SDS011;19359;51.402;6.778;2023-02-21T13:24:52;22.67;;;12.32;;
7783;SDS011;19359;51.402;6.778;2023-02-21T13:27:29;18.75;;;11.07;;
7783;SDS011;19359;51.402;6.778;2023-02-21T13:30:12;18.13;;;10.77;;
7783;SDS011;19359;51.402;6.778;2023-02-21T13:32:50;17.45;;;11.52;;
7783;SDS011;19359;51.402;6.778;2023-02-21T13:35:20;24.42;;;13.40;;
7783;SDS011;19359;51.402;6.778;2023-02-21T13:37:52;28.60;;;17.63;;
7783;SDS011;19359;51.402;6.778;2023-02-21T13:40:21;27.52;;;16.38;;
7783;SDS011;19359;51.402;6.778;2023-02-21T13:45:37;30.33;;;15.80;;
7783;SDS011;19359;51.402;6.778;2023-02-21T13:50:57;16.63;;;11.25;;
7783;SDS011;19359;51.402;6.778;2023-02-21T13:53:29;15.68;;;9.93;;
7783;SDS011;19359;51.402;6.778;2023-02-21T13:56:10;20.23;;;11.45;;
7783;SDS011;19359;51.402;6.778;2023-02-21T13:58:42;22.33;;;10.23;;
7783;SDS011;19359;51.402;6.778;2023-02-21T14:01:15;18.55;;;9.25;;
7783;SDS011;19359;51.402;6.778;2023-02-21T14:07:05;15.43;;;9.52;;
7783;SDS011;19359;51.402;6.778;2023-02-21T14:09:33;18.40;;;11.45;;
7783;SDS011;19359;51.402;6.778;2023-02-21T14:12:01;19.77;;;10.45;;
7783;SDS011;19359;51.402;6.778;2023-02-21T14:14:30;22.45;;;10.18;;
7783;SDS011;19359;51.402;6.778;2023-02-21T14:17:04;17.35;;;9.07;;
7783;SDS011;19359;51.402;6.778;2023-02-21T14:19:34;15.05;;;9.73;;
7783;SDS011;19359;51.402;6.778;2023-02-21T14:22:03;13.43;;;8.70;;
7783;SDS011;19359;51.402;6.778;2023-02-21T14:24:37;14.25;;;9.48;;
7783;SDS011;19359;51.402;6.778;2023-02-21T14:32:50;15.02;;;9.52;;
7783;SDS011;19359;51.402;6.778;2023-02-21T14:35:23;17.33;;;9.85;;
7783;SDS011;19359;51.402;6.778;2023-02-21T14:37:56;16.38;;;10.18;;
7783;SDS011;19359;51.402;6.778;2023-02-21T14:40:29;14.45;;;8.60;;
7783;SDS011;19359;51.402;6.778;2023-02-21T14:43:21;15.18;;;9.40;;
7783;SDS011;19359;51.402;6.778;2023-02-21T14:46:19;15.18;;;8.95;;
7783;SDS011;19359;51.402;6.778;2023-02-21T14:49:09;16.00;;;9.57;;
7783;SDS011;19359;51.402;6.778;2023-02-21T14:52:01;16.67;;;9.70;;
7783;SDS011;19359;51.402;6.778;2023-02-21T14:58:33;22.20;;;12.57;;
7783;SDS011;19359;51.402;6.778;2023-02-21T15:01:11;22.38;;;12.10;;
7783;SDS011;19359;51.402;6.778;2023-02-21T15:03:45;19.90;;;12.88;;
7783;SDS011;19359;51.402;6.778;2023-02-21T15:06:17;20.73;;;11.43;;
7783;SDS011;19359;51.402;6.778;2023-02-21T15:08:46;24.38;;;11.02;;
7783;SDS011;19359;51.402;6.778;2023-02-21T15:11:20;16.27;;;10.85;;
7783;SDS011;19359;51.402;6.778;2023-02-21T15:16:46;22.02;;;11.52;;
7783;SDS011;19359;51.402;6.778;2023-02-21T15:19:22;21.27;;;11.93;;
7783;SDS011;19359;51.402;6.778;2023-02-21T15:22:17;20.33;;;11.80;;
7783;SDS011;19359;51.402;6.778;2023-02-21T15:24:58;23.67;;;11.38;;
7783;SDS011;19359;51.402;6.778;2023-02-21T15:30:41;21.40;;;11.80;;
7783;SDS011;19359;51.402;6.778;2023-02-21T15:33:21;21.30;;;13.15;;
7783;SDS011;19359;51.402;6.778;2023-02-21T15:35:52;24.38;;;13.38;;
7783;SDS011;19359;51.402;6.778;2023-02-21T15:38:23;25.75;;;14.10;;